createdAt,value
2018-11-13T00:00:29.435Z,24.77
2018-11-13T00:02:58.088Z,26.37
2018-11-13T00:05:27.174Z,23.30
2018-11-13T00:07:55.699Z,28.03
2018-11-13T00:10:24.312Z,26.87
2018-11-13T00:12:52.877Z,26.63
2018-11-13T00:15:21.379Z,26.33
2018-11-13T00:17:49.883Z,25.07
2018-11-13T00:20:19.213Z,27.03
2018-11-13T00:22:47.698Z,25.97
2018-11-13T00:25:17.372Z,25.97
2018-11-13T00:27:46.083Z,25.73
2018-11-13T00:30:17.334Z,28.80
2018-11-13T00:32:45.884Z,25.70
2018-11-13T00:35:15.525Z,26.80
2018-11-13T00:37:44.665Z,27.07
2018-11-13T00:40:13.949Z,26.87
2018-11-13T00:42:43.510Z,24.93
2018-11-13T00:45:12.175Z,27.00
2018-11-13T00:47:40.679Z,25.63
2018-11-13T00:50:12.880Z,25.57
2018-11-13T00:52:42.147Z,25.07
2018-11-13T00:55:11.062Z,28.80
2018-11-13T00:57:39.837Z,26.43
2018-11-13T01:00:10.903Z,25.13
2018-11-13T01:02:39.546Z,27.93
2018-11-13T01:05:10.276Z,28.27
2018-11-13T01:07:38.833Z,27.57
2018-11-13T01:10:08.667Z,31.90
2018-11-13T01:12:37.247Z,32.53
2018-11-13T01:15:06.427Z,36.77
2018-11-13T01:17:34.992Z,32.57
2018-11-13T01:20:03.672Z,28.33
2018-11-13T01:22:32.331Z,31.27
2018-11-13T01:25:00.908Z,28.60
2018-11-13T01:27:29.559Z,30.60
2018-11-13T01:29:59.002Z,31.60
2018-11-13T01:32:28.947Z,32.57
2018-11-13T01:34:57.656Z,31.33
2018-11-13T01:37:26.455Z,29.13
2018-11-13T01:39:55.468Z,32.00
2018-11-13T01:42:24.872Z,28.40
2018-11-13T01:44:53.478Z,30.10
2018-11-13T01:47:22.101Z,30.83
2018-11-13T01:49:50.706Z,35.50
2018-11-13T01:52:19.604Z,34.43
2018-11-13T01:54:48.237Z,31.23
2018-11-13T01:57:16.941Z,30.30
2018-11-13T01:59:45.647Z,32.13
2018-11-13T02:02:14.478Z,33.03
2018-11-13T02:04:43.267Z,37.83
2018-11-13T02:07:11.942Z,33.87
2018-11-13T02:09:40.629Z,32.03
2018-11-13T02:12:09.285Z,31.97
2018-11-13T02:14:37.929Z,29.40
2018-11-13T02:17:07.409Z,28.13
2018-11-13T02:19:36.106Z,28.77
2018-11-13T02:22:04.824Z,30.77
2018-11-13T02:24:33.421Z,27.83
2018-11-13T02:27:02.060Z,29.10
2018-11-13T02:29:30.698Z,28.10
2018-11-13T02:31:59.399Z,28.40
2018-11-13T02:34:28.252Z,31.10
2018-11-13T02:36:57.008Z,24.03
2018-11-13T02:39:25.727Z,28.23
2018-11-13T02:41:54.444Z,31.10
2018-11-13T02:44:23.130Z,29.83
2018-11-13T02:46:51.879Z,31.40
2018-11-13T02:49:20.465Z,28.10
2018-11-13T02:51:49.165Z,29.70
2018-11-13T02:54:17.821Z,27.67
2018-11-13T02:56:46.588Z,26.87
2018-11-13T02:59:15.340Z,25.83
2018-11-13T03:01:44.011Z,28.93
2018-11-13T03:04:12.806Z,24.87
2018-11-13T03:06:41.593Z,26.27
2018-11-13T03:09:10.421Z,22.00
2018-11-13T03:11:39.246Z,24.43
2018-11-13T03:14:08.041Z,22.07
2018-11-13T03:16:36.714Z,21.20
2018-11-13T03:19:05.783Z,17.37
2018-11-13T03:21:34.536Z,17.40
2018-11-13T03:24:03.387Z,19.73
2018-11-13T03:26:32.220Z,23.67
2018-11-13T03:29:00.917Z,20.37
2018-11-13T03:31:29.928Z,17.90
2018-11-13T03:33:58.530Z,15.77
2018-11-13T03:36:27.209Z,16.37
2018-11-13T03:38:55.910Z,18.80
2018-11-13T03:41:24.868Z,14.47
2018-11-13T03:43:53.729Z,14.27
2018-11-13T03:46:22.458Z,12.53
2018-11-13T03:48:51.092Z,11.23
2018-11-13T03:51:19.728Z,13.43
2018-11-13T03:53:48.408Z,12.87
2018-11-13T03:56:17.083Z,11.73
2018-11-13T03:58:45.720Z,12.03
2018-11-13T04:01:14.699Z,12.40
2018-11-13T04:03:43.471Z,13.37
2018-11-13T04:06:12.131Z,10.60
2018-11-13T04:08:40.750Z,13.83
2018-11-13T04:11:09.591Z,11.30
2018-11-13T04:13:38.260Z,12.47
2018-11-13T04:16:06.793Z,10.43
2018-11-13T04:18:35.589Z,15.30
2018-11-13T04:21:04.956Z,9.67
2018-11-13T04:23:35.762Z,10.30
2018-11-13T04:26:04.456Z,9.30
2018-11-13T04:28:33.280Z,13.10
2018-11-13T04:31:01.980Z,8.90
2018-11-13T04:33:30.895Z,8.57
2018-11-13T04:35:59.677Z,8.57
2018-11-13T04:38:28.415Z,8.90
2018-11-13T04:40:57.050Z,7.23
2018-11-13T04:43:25.722Z,8.47
2018-11-13T04:45:54.476Z,8.43
2018-11-13T04:48:23.328Z,11.60
2018-11-13T04:50:52.064Z,8.07
2018-11-13T04:53:20.932Z,10.90
2018-11-13T04:55:49.781Z,10.60
2018-11-13T04:58:18.519Z,8.57
2018-11-13T05:00:47.252Z,7.90
2018-11-13T05:03:15.924Z,7.57
2018-11-13T05:05:44.614Z,6.37
2018-11-13T05:08:13.339Z,6.17
2018-11-13T05:10:42.155Z,8.10
2018-11-13T05:13:10.886Z,5.73
2018-11-13T05:15:39.650Z,6.33
2018-11-13T05:18:08.326Z,5.57
2018-11-13T05:20:37.046Z,5.93
2018-11-13T05:23:05.939Z,6.30
2018-11-13T05:25:34.547Z,5.90
2018-11-13T05:28:03.201Z,6.03
2018-11-13T05:30:31.844Z,6.73
2018-11-13T05:33:00.531Z,6.47
2018-11-13T05:35:29.173Z,5.80
2018-11-13T05:37:57.806Z,5.27
2018-11-13T05:40:26.512Z,6.43
2018-11-13T05:42:55.514Z,5.33
2018-11-13T05:45:25.475Z,5.47
2018-11-13T05:47:54.192Z,7.00
2018-11-13T05:50:23.632Z,4.77
2018-11-13T05:52:53.543Z,4.83
2018-11-13T05:55:22.400Z,7.17
2018-11-13T05:57:51.449Z,5.13
2018-11-13T06:00:25.156Z,5.57
2018-11-13T06:02:53.895Z,5.13
2018-11-13T06:05:22.790Z,5.07
2018-11-13T06:07:51.574Z,5.17
2018-11-13T06:10:20.323Z,5.20
2018-11-13T06:12:49.138Z,5.27
2018-11-13T06:15:18.101Z,5.63
2018-11-13T06:17:46.916Z,6.40
2018-11-13T06:20:17.094Z,4.87
2018-11-13T06:22:46.091Z,5.00
2018-11-13T06:25:16.063Z,4.93
2018-11-13T06:27:45.808Z,5.97
2018-11-13T06:30:18.207Z,8.57
2018-11-13T06:32:47.478Z,6.90
2018-11-13T06:35:21.472Z,5.10
2018-11-13T06:37:50.042Z,5.17
2018-11-13T06:40:19.184Z,4.90
2018-11-13T06:42:47.743Z,4.73
2018-11-13T06:45:17.777Z,4.63
2018-11-13T06:47:47.120Z,5.03
2018-11-13T06:50:15.773Z,5.07
2018-11-13T06:52:45.122Z,5.03
2018-11-13T06:55:19.642Z,5.30
2018-11-13T06:57:48.374Z,5.57
2018-11-13T07:00:17.169Z,5.23
2018-11-13T07:02:45.893Z,5.50
2018-11-13T07:05:16.211Z,5.30
2018-11-13T07:07:45.456Z,4.87
2018-11-13T07:10:17.122Z,5.57
2018-11-13T07:12:46.922Z,6.10
2018-11-13T07:15:22.679Z,7.03
2018-11-13T07:17:52.783Z,5.70
2018-11-13T07:20:24.403Z,5.13
2018-11-13T07:22:53.031Z,5.23
2018-11-13T07:25:21.980Z,5.83
2018-11-13T07:27:50.586Z,6.47
2018-11-13T07:30:19.940Z,5.47
2018-11-13T07:32:48.442Z,4.93
2018-11-13T07:35:18.021Z,5.07
2018-11-13T07:37:48.098Z,5.60
2018-11-13T07:40:16.648Z,7.80
2018-11-13T07:42:45.205Z,4.93
2018-11-13T07:45:14.771Z,4.30
2018-11-13T07:47:44.376Z,4.83
2018-11-13T07:50:13.568Z,3.77
2018-11-13T07:52:42.137Z,4.03
2018-11-13T07:55:11.666Z,4.00
2018-11-13T07:57:40.202Z,3.70
2018-11-13T08:00:11.884Z,5.50
2018-11-13T08:02:40.995Z,5.60
2018-11-13T08:05:09.584Z,4.47
2018-11-13T08:07:38.102Z,4.90
2018-11-13T08:10:07.454Z,3.67
2018-11-13T08:12:35.919Z,3.27
2018-11-13T08:15:04.566Z,5.37
2018-11-13T08:17:33.035Z,3.20
2018-11-13T08:20:01.557Z,4.07
2018-11-13T08:22:30.127Z,3.70
2018-11-13T08:24:58.608Z,4.03
2018-11-13T08:27:27.023Z,5.20
2018-11-13T08:29:55.499Z,4.60
2018-11-13T08:32:24.144Z,5.60
2018-11-13T08:34:52.749Z,4.53
2018-11-13T08:37:21.351Z,3.80
2018-11-13T08:39:49.795Z,4.83
2018-11-13T08:42:18.230Z,4.93
2018-11-13T08:44:47.059Z,4.33
2018-11-13T08:47:15.618Z,4.27
2018-11-13T08:49:44.283Z,5.20
2018-11-13T08:52:12.721Z,6.93
2018-11-13T08:54:41.223Z,7.33
2018-11-13T08:57:09.684Z,5.23
2018-11-13T08:59:38.248Z,2.83
2018-11-13T09:02:07.059Z,2.83
2018-11-13T09:04:35.647Z,2.80
2018-11-13T09:07:04.264Z,3.17
2018-11-13T09:09:32.881Z,5.30
2018-11-13T09:12:01.638Z,5.03
2018-11-13T09:14:30.188Z,4.57
2018-11-13T09:16:58.712Z,5.23
2018-11-13T09:19:27.610Z,3.10
2018-11-13T09:21:56.054Z,3.83
2018-11-13T09:24:24.498Z,1.93
2018-11-13T09:26:52.991Z,3.40
2018-11-13T09:29:21.440Z,3.93
2018-11-13T09:31:50.012Z,2.40
2018-11-13T09:34:18.583Z,4.97
2018-11-13T09:36:47.091Z,4.67
2018-11-13T09:39:15.706Z,4.33
2018-11-13T09:41:44.306Z,4.13
2018-11-13T09:44:12.913Z,6.70
2018-11-13T09:46:41.528Z,5.20
2018-11-13T09:49:10.117Z,5.30
2018-11-13T09:51:38.722Z,2.87
2018-11-13T09:54:07.227Z,4.57
2018-11-13T09:56:35.883Z,3.37
2018-11-13T09:59:04.369Z,6.30
2018-11-13T10:01:33.244Z,5.43
2018-11-13T10:04:02.049Z,3.53
2018-11-13T10:06:29.959Z,3.90
2018-11-13T10:08:58.432Z,5.97
2018-11-13T10:11:26.993Z,7.70
2018-11-13T10:13:55.524Z,4.47
2018-11-13T10:16:24.189Z,5.00
2018-11-13T10:18:52.599Z,3.47
2018-11-13T10:21:21.189Z,3.67
2018-11-13T10:23:49.792Z,3.97
2018-11-13T10:26:18.390Z,4.23
2018-11-13T10:28:46.831Z,5.53
2018-11-13T10:31:15.472Z,4.00
2018-11-13T10:33:44.046Z,5.00
2018-11-13T10:36:12.667Z,4.93
2018-11-13T10:38:41.264Z,6.13
2018-11-13T10:41:09.981Z,2.10
2018-11-13T10:43:38.561Z,5.17
2018-11-13T10:46:07.173Z,5.43
2018-11-13T10:48:35.781Z,2.73
2018-11-13T10:51:04.349Z,7.40
2018-11-13T10:53:32.993Z,3.40
2018-11-13T10:56:01.635Z,3.87
2018-11-13T10:58:30.222Z,5.17
2018-11-13T11:01:00.203Z,5.40
2018-11-13T11:03:34.164Z,6.60
2018-11-13T11:06:02.870Z,6.47
2018-11-13T11:08:31.861Z,7.73
2018-11-13T11:11:00.484Z,3.13
2018-11-13T11:13:29.311Z,3.47
2018-11-13T11:15:57.798Z,3.77
2018-11-13T11:18:26.519Z,2.50
2018-11-13T11:20:55.169Z,3.80
2018-11-13T11:23:23.806Z,7.67
2018-11-13T11:25:52.467Z,3.43
2018-11-13T11:28:20.996Z,3.20
2018-11-13T11:30:49.512Z,6.07
2018-11-13T11:33:18.163Z,3.87
2018-11-13T11:35:47.706Z,3.67
2018-11-13T11:38:16.179Z,7.10
2018-11-13T11:40:45.674Z,7.67
2018-11-13T11:43:14.188Z,3.67
2018-11-13T11:45:42.884Z,3.40
2018-11-13T11:48:11.942Z,12.00
2018-11-13T11:50:40.636Z,4.00
2018-11-13T11:53:09.117Z,1.73
2018-11-13T11:55:37.900Z,10.13
2018-11-13T11:58:06.379Z,3.00
2018-11-13T12:00:36.335Z,3.00
2018-11-13T12:03:05.608Z,4.50
2018-11-13T12:05:34.280Z,5.37
2018-11-13T12:08:03.028Z,4.63
2018-11-13T12:10:31.647Z,5.87
2018-11-13T12:13:00.187Z,6.30
2018-11-13T12:15:28.686Z,3.40
2018-11-13T12:17:57.304Z,5.40
2018-11-13T12:20:26.007Z,5.47
2018-11-13T12:22:54.528Z,3.80
2018-11-13T12:25:22.986Z,7.30
2018-11-13T12:27:51.588Z,4.40
2018-11-13T12:30:21.904Z,3.53
2018-11-13T12:32:51.384Z,4.70
2018-11-13T12:35:21.322Z,4.70
2018-11-13T12:37:51.734Z,7.20
2018-11-13T12:40:22.334Z,8.50
2018-11-13T12:42:52.865Z,6.60
2018-11-13T12:45:22.045Z,5.87
2018-11-13T12:47:51.015Z,2.63
2018-11-13T12:50:21.015Z,3.47
2018-11-13T12:52:49.821Z,3.03
2018-11-13T12:55:23.626Z,5.97
2018-11-13T12:57:52.262Z,4.90
2018-11-13T13:00:24.340Z,4.90
2018-11-13T13:02:52.979Z,7.23
2018-11-13T13:05:21.669Z,4.67
2018-11-13T13:07:50.331Z,5.33
2018-11-13T13:10:19.850Z,3.90
2018-11-13T13:12:48.549Z,2.70
2018-11-13T13:15:18.879Z,5.17
2018-11-13T13:17:47.622Z,3.40
2018-11-13T13:20:19.391Z,4.70
2018-11-13T13:22:49.015Z,5.07
2018-11-13T13:25:18.410Z,5.10
2018-11-13T13:27:49.214Z,3.17
2018-11-13T13:30:22.128Z,3.73
2018-11-13T13:32:51.064Z,5.23
2018-11-13T13:36:09.026Z,5.67
2018-11-13T13:38:38.884Z,3.07
2018-11-13T13:41:07.760Z,4.43
2018-11-13T13:43:36.716Z,4.50
2018-11-13T13:46:05.646Z,5.37
2018-11-13T13:48:34.672Z,4.60
2018-11-13T13:51:03.381Z,5.43
2018-11-13T13:53:32.829Z,6.87
2018-11-13T13:56:01.455Z,3.23
2018-11-13T13:58:30.107Z,4.67
2018-11-13T14:00:59.079Z,3.20
2018-11-13T14:03:27.858Z,4.77
2018-11-13T14:05:56.540Z,4.70
2018-11-13T14:08:25.492Z,5.77
2018-11-13T14:10:54.407Z,4.23
2018-11-13T14:13:23.190Z,3.73
2018-11-13T14:15:52.091Z,2.27
2018-11-13T14:18:21.087Z,4.87
2018-11-13T14:20:50.033Z,3.77
2018-11-13T14:23:19.313Z,2.47
2018-11-13T14:25:48.423Z,5.57
2018-11-13T14:28:17.363Z,8.33
2018-11-13T14:30:46.491Z,7.50
2018-11-13T14:33:15.701Z,3.60
2018-11-13T14:35:45.025Z,4.33
2018-11-13T14:38:14.216Z,5.27
2018-11-13T14:40:45.150Z,4.70
2018-11-13T14:43:14.294Z,3.27
2018-11-13T14:45:43.470Z,6.03
2018-11-13T14:48:12.747Z,8.80
2018-11-13T14:50:41.803Z,6.83
2018-11-13T14:53:11.035Z,4.47
2018-11-13T14:55:41.486Z,4.10
2018-11-13T14:58:11.852Z,4.03
2018-11-13T15:00:41.320Z,2.60
2018-11-13T15:03:12.208Z,8.47
2018-11-13T15:05:41.606Z,1.97
2018-11-13T15:08:10.751Z,1.80
2018-11-13T15:10:55.554Z,4.13
2018-11-13T15:13:25.539Z,4.97
2018-11-13T15:15:54.140Z,5.33
2018-11-13T15:18:22.846Z,10.67
2018-11-13T15:20:52.435Z,3.27
2018-11-13T15:23:21.509Z,6.37
2018-11-13T15:25:51.615Z,5.23
2018-11-13T15:28:20.437Z,3.70
2018-11-13T15:30:50.279Z,6.40
2018-11-13T15:33:23.665Z,1.97
2018-11-13T15:35:52.257Z,2.27
2018-11-13T15:38:21.223Z,2.50
2018-11-13T15:40:49.903Z,3.77
2018-11-13T15:43:18.743Z,3.53
2018-11-13T15:45:47.481Z,4.50
2018-11-13T15:48:16.929Z,5.93
2018-11-13T15:50:45.897Z,3.73
2018-11-13T15:53:14.684Z,2.70
2018-11-13T15:55:43.386Z,4.50
2018-11-13T15:58:12.170Z,4.37
2018-11-13T16:00:42.572Z,4.20
2018-11-13T16:03:21.021Z,3.90
2018-11-13T16:05:52.663Z,4.10
2018-11-13T16:08:21.774Z,2.03
2018-11-13T16:10:51.642Z,3.50
2018-11-13T16:13:20.817Z,6.27
2018-11-13T16:15:49.783Z,2.90
2018-11-13T16:18:21.061Z,1.97
2018-11-13T16:20:49.932Z,5.73
2018-11-13T16:23:18.785Z,4.37
2018-11-13T16:25:47.697Z,5.10
2018-11-13T16:28:17.211Z,3.37
2018-11-13T16:30:46.223Z,3.67
2018-11-13T16:33:15.345Z,8.87
2018-11-13T16:35:44.687Z,4.40
2018-11-13T16:38:14.396Z,4.47
2018-11-13T16:40:43.572Z,5.80
2018-11-13T16:43:12.293Z,7.33
2018-11-13T16:45:41.172Z,5.73
2018-11-13T16:48:10.214Z,4.73
2018-11-13T16:50:42.958Z,5.00
2018-11-13T16:53:11.870Z,5.83
2018-11-13T16:55:45.871Z,3.53
2018-11-13T16:58:15.895Z,3.60
2018-11-13T17:00:44.855Z,4.53
2018-11-13T17:03:13.623Z,3.87
2018-11-13T17:05:42.368Z,6.37
2018-11-13T17:08:11.932Z,5.70
2018-11-13T17:10:42.093Z,4.37
2018-11-13T17:13:10.943Z,4.03
2018-11-13T17:15:40.149Z,3.33
2018-11-13T17:18:08.917Z,4.27
2018-11-13T17:20:37.925Z,3.23
2018-11-13T17:23:06.880Z,7.70
2018-11-13T17:25:37.049Z,6.23
2018-11-13T17:28:06.630Z,4.17
2018-11-13T17:30:36.332Z,5.20
2018-11-13T17:33:07.692Z,7.47
2018-11-13T17:35:38.182Z,4.37
2018-11-13T17:38:07.322Z,4.37
2018-11-13T17:40:36.825Z,6.37
2018-11-13T17:43:06.516Z,5.10
2018-11-13T17:45:36.463Z,9.03
2018-11-13T17:48:05.470Z,3.30
2018-11-13T17:50:37.552Z,6.20
2018-11-13T17:53:07.480Z,5.87
2018-11-13T17:55:36.665Z,8.27
2018-11-13T17:58:07.907Z,8.03
2018-11-13T18:00:38.484Z,4.13
2018-11-13T18:03:08.034Z,7.50
2018-11-13T18:05:37.140Z,3.70
2018-11-13T18:08:06.545Z,5.03
2018-11-13T18:10:36.384Z,7.23
2018-11-13T18:13:05.571Z,7.07
2018-11-13T18:15:34.366Z,8.13
2018-11-13T18:18:03.246Z,5.40
2018-11-13T18:20:33.196Z,6.93
2018-11-13T18:23:01.949Z,7.80
2018-11-13T18:25:30.843Z,5.50
2018-11-13T18:28:00.492Z,10.03
2018-11-13T18:30:30.261Z,5.13
2018-11-13T18:32:59.516Z,6.67
2018-11-13T18:35:29.601Z,6.20
2018-11-13T18:38:00.730Z,6.90
2018-11-13T18:40:29.994Z,6.77
2018-11-13T18:42:59.846Z,7.53
2018-11-13T18:45:31.609Z,18.33
2018-11-13T18:48:01.327Z,15.90
2018-11-13T18:50:31.052Z,24.40
2018-11-13T18:52:59.789Z,94.83
2018-11-13T18:55:28.412Z,10.53
2018-11-13T18:57:57.168Z,5.33
2018-11-13T19:00:27.577Z,8.97
2018-11-13T19:02:56.397Z,6.07
2018-11-13T19:05:26.571Z,10.63
2018-11-13T19:07:57.115Z,5.83
2018-11-13T19:10:33.120Z,7.47
2018-11-13T19:13:02.772Z,4.90
2018-11-13T19:15:32.928Z,9.57
2018-11-13T19:18:01.624Z,8.23
2018-11-13T19:20:30.462Z,13.40
2018-11-13T19:22:59.082Z,10.67
2018-11-13T19:25:29.035Z,6.23
2018-11-13T19:27:57.994Z,5.93
2018-11-13T19:30:26.714Z,7.70
2018-11-13T19:32:55.384Z,7.70
2018-11-13T19:35:24.127Z,6.97
2018-11-13T19:37:52.545Z,8.53
2018-11-13T19:40:24.369Z,9.10
2018-11-13T19:42:53.594Z,7.00
2018-11-13T19:45:22.476Z,8.33
2018-11-13T19:47:51.059Z,6.73
2018-11-13T19:50:22.150Z,7.97
2018-11-13T19:52:50.870Z,10.90
2018-11-13T19:55:20.429Z,5.93
2018-11-13T19:57:49.466Z,7.20
2018-11-13T20:00:34.816Z,7.43
2018-11-13T20:03:04.660Z,5.30
2018-11-13T20:05:33.491Z,4.27
2018-11-13T20:08:02.192Z,7.67
2018-11-13T20:10:32.049Z,8.47
2018-11-13T20:13:02.035Z,7.53
2018-11-13T20:15:31.397Z,8.80
2018-11-13T20:18:00.008Z,5.23
2018-11-13T20:20:29.924Z,5.53
2018-11-13T20:22:59.494Z,5.53
2018-11-13T20:25:29.514Z,7.30
2018-11-13T20:27:58.144Z,8.77
2018-11-13T20:30:28.556Z,8.60
2018-11-13T20:32:57.228Z,7.93
2018-11-13T20:35:25.930Z,5.30
2018-11-13T20:37:56.021Z,6.20
2018-11-13T20:40:27.212Z,4.53
2018-11-13T20:42:57.231Z,13.90
2018-11-13T20:45:26.020Z,10.40
2018-11-13T20:47:54.657Z,9.80
2018-11-13T20:50:25.237Z,11.83
2018-11-13T20:52:53.962Z,10.33
2018-11-13T20:55:22.685Z,8.60
2018-11-13T20:57:51.341Z,7.87
2018-11-13T21:00:21.818Z,8.63
2018-11-13T21:02:50.732Z,9.27
2018-11-13T21:05:19.456Z,8.33
2018-11-13T21:07:48.187Z,8.23
2018-11-13T21:10:18.618Z,7.60
2018-11-13T21:12:47.781Z,10.43
2018-11-13T21:15:18.593Z,7.90
2018-11-13T21:17:47.284Z,10.17
2018-11-13T21:20:17.317Z,8.80
2018-11-13T21:22:46.092Z,6.60
2018-11-13T21:25:16.249Z,9.40
2018-11-13T21:27:44.937Z,10.90
2018-11-13T21:30:17.112Z,6.97
2018-11-13T21:32:46.700Z,6.50
2018-11-13T21:35:15.652Z,9.77
2018-11-13T21:37:45.569Z,6.00
2018-11-13T21:40:15.343Z,7.80
2018-11-13T21:42:45.069Z,9.10
2018-11-13T21:45:14.213Z,5.60
2018-11-13T21:47:43.319Z,8.77
2018-11-13T21:50:14.006Z,6.47
2018-11-13T21:52:42.892Z,5.37
2018-11-13T21:55:15.149Z,9.13
2018-11-13T21:57:43.840Z,6.33
2018-11-13T22:00:20.454Z,11.23
2018-11-13T22:03:05.320Z,7.77
2018-11-13T22:05:34.823Z,11.60
2018-11-13T22:08:03.477Z,7.23
2018-11-13T22:10:32.068Z,8.53
2018-11-13T22:13:00.608Z,12.47
2018-11-13T22:15:29.851Z,8.80
2018-11-13T22:17:58.448Z,5.17
2018-11-13T22:20:27.017Z,8.30
2018-11-13T22:22:57.003Z,6.20
2018-11-13T22:25:26.341Z,10.57
2018-11-13T22:27:56.331Z,8.23
2018-11-13T22:30:26.113Z,10.23
2018-11-13T22:32:54.777Z,6.60
2018-11-13T22:35:23.750Z,13.73
2018-11-13T22:37:52.382Z,7.37
2018-11-13T22:40:22.604Z,7.87
2018-11-13T22:42:51.445Z,8.80
2018-11-13T22:45:21.348Z,7.97
2018-11-13T22:47:50.088Z,8.57
2018-11-13T22:50:20.181Z,15.50
2018-11-13T22:52:49.162Z,11.37
2018-11-13T22:55:18.264Z,6.87
2018-11-13T22:57:47.704Z,8.43
2018-11-13T23:00:23.662Z,9.90
2018-11-13T23:02:53.406Z,9.17
2018-11-13T23:05:22.091Z,7.20
2018-11-13T23:07:50.818Z,5.80
2018-11-13T23:10:19.748Z,6.83
2018-11-13T23:12:48.457Z,8.27
2018-11-13T23:15:19.605Z,7.77
2018-11-13T23:17:48.226Z,8.50
2018-11-13T23:20:18.224Z,5.33
2018-11-13T23:22:46.776Z,7.27
2018-11-13T23:25:16.643Z,6.53
2018-11-13T23:27:46.202Z,10.67
2018-11-13T23:30:22.366Z,7.00
2018-11-13T23:32:51.180Z,10.10
2018-11-13T23:35:20.045Z,6.53
2018-11-13T23:37:49.989Z,9.03
2018-11-13T23:40:20.008Z,7.30
2018-11-13T23:42:49.050Z,9.37
2018-11-13T23:45:18.797Z,6.50
2018-11-13T23:47:47.997Z,7.37
2018-11-13T23:50:16.679Z,7.07
2018-11-13T23:52:46.019Z,10.87
2018-11-13T23:55:15.177Z,8.37
2018-11-13T23:57:44.373Z,8.30
